createdAt,value
2017-10-13T00:00:34.416Z,6.90
2017-10-13T00:03:01.870Z,8.00
2017-10-13T00:05:29.335Z,7.23
2017-10-13T00:07:56.878Z,6.40
2017-10-13T00:10:24.361Z,6.47
2017-10-13T00:12:51.806Z,6.70
2017-10-13T00:15:19.267Z,6.77
2017-10-13T00:17:46.805Z,5.33
2017-10-13T00:20:14.265Z,7.63
2017-10-13T00:22:41.718Z,6.70
2017-10-13T00:25:09.191Z,7.20
2017-10-13T00:27:36.633Z,7.97
2017-10-13T00:30:04.099Z,6.57
2017-10-13T00:32:31.545Z,7.33
2017-10-13T00:34:59.365Z,6.90
2017-10-13T00:37:26.816Z,6.60
2017-10-13T00:39:54.303Z,6.67
2017-10-13T00:42:21.765Z,6.70
2017-10-13T00:44:49.198Z,6.30
2017-10-13T00:47:16.673Z,5.90
2017-10-13T00:49:44.155Z,5.03
2017-10-13T00:52:11.624Z,5.00
2017-10-13T00:54:39.172Z,5.80
2017-10-13T00:57:06.676Z,5.13
2017-10-13T00:59:34.129Z,5.13
2017-10-13T01:02:01.620Z,6.50
2017-10-13T01:04:29.075Z,5.93
2017-10-13T01:06:56.657Z,5.50
2017-10-13T01:09:24.129Z,6.33
2017-10-13T01:11:51.600Z,5.77
2017-10-13T01:14:19.056Z,6.13
2017-10-13T01:16:46.587Z,5.50
2017-10-13T01:19:14.036Z,6.20
2017-10-13T01:21:41.495Z,5.80
2017-10-13T01:24:08.967Z,5.80
2017-10-13T01:26:36.443Z,6.80
2017-10-13T01:29:03.925Z,6.50
2017-10-13T01:31:31.382Z,5.37
2017-10-13T01:33:58.879Z,6.93
2017-10-13T01:36:26.335Z,6.47
2017-10-13T01:38:53.893Z,6.53
2017-10-13T01:41:21.355Z,7.17
2017-10-13T01:43:48.850Z,5.97
2017-10-13T01:46:16.365Z,6.07
2017-10-13T01:48:44.795Z,6.23
2017-10-13T01:51:12.264Z,5.97
2017-10-13T01:53:39.725Z,6.00
2017-10-13T01:56:07.206Z,6.47
2017-10-13T01:58:34.672Z,5.77
2017-10-13T02:01:02.161Z,5.03
2017-10-13T02:03:29.693Z,5.57
2017-10-13T02:05:57.168Z,5.47
2017-10-13T02:08:24.624Z,6.33
2017-10-13T02:10:52.105Z,5.10
2017-10-13T02:13:19.651Z,5.07
2017-10-13T02:15:47.120Z,5.23
2017-10-13T02:18:14.639Z,5.20
2017-10-13T02:20:42.121Z,6.10
2017-10-13T02:23:09.570Z,6.27
2017-10-13T02:25:37.021Z,6.53
2017-10-13T02:28:04.528Z,6.13
2017-10-13T02:30:32.016Z,5.40
2017-10-13T02:32:59.574Z,5.40
2017-10-13T02:35:27.036Z,5.33
2017-10-13T02:37:54.590Z,5.80
2017-10-13T02:40:22.045Z,6.20
2017-10-13T02:42:49.534Z,6.03
2017-10-13T02:45:16.994Z,5.67
2017-10-13T02:47:44.523Z,6.13
2017-10-13T02:50:11.977Z,5.20
2017-10-13T02:52:39.443Z,5.63
2017-10-13T02:55:06.993Z,6.00
2017-10-13T02:57:34.457Z,5.30
2017-10-13T03:00:01.936Z,6.10
2017-10-13T03:02:29.389Z,4.70
2017-10-13T03:04:56.862Z,4.17
2017-10-13T03:07:24.388Z,5.20
2017-10-13T03:09:53.382Z,4.70
2017-10-13T03:12:20.841Z,5.60
2017-10-13T03:14:48.306Z,5.00
2017-10-13T03:17:15.844Z,4.90
2017-10-13T03:19:43.338Z,5.83
2017-10-13T03:22:10.856Z,5.57
2017-10-13T03:24:38.337Z,5.00
2017-10-13T03:27:05.798Z,5.60
2017-10-13T03:29:34.248Z,5.90
2017-10-13T03:32:01.718Z,8.30
2017-10-13T03:34:29.160Z,5.10
2017-10-13T03:36:56.725Z,4.27
2017-10-13T03:39:24.176Z,4.80
2017-10-13T03:41:51.681Z,5.00
2017-10-13T03:44:19.131Z,5.00
2017-10-13T03:46:46.602Z,5.03
2017-10-13T03:49:14.067Z,4.27
2017-10-13T03:51:41.569Z,5.03
2017-10-13T03:54:09.020Z,4.90
2017-10-13T03:56:36.499Z,4.50
2017-10-13T03:59:03.952Z,4.77
2017-10-13T04:01:31.430Z,4.93
2017-10-13T04:03:58.884Z,4.73
2017-10-13T04:06:26.331Z,4.37
2017-10-13T04:08:53.905Z,4.07
2017-10-13T04:11:21.437Z,4.50
2017-10-13T04:13:48.921Z,4.50
2017-10-13T04:16:16.438Z,4.40
2017-10-13T04:18:44.002Z,4.00
2017-10-13T04:21:11.460Z,4.20
2017-10-13T04:23:38.956Z,5.50
2017-10-13T04:26:06.399Z,4.80
2017-10-13T04:28:33.868Z,5.20
2017-10-13T04:31:01.320Z,5.20
2017-10-13T04:33:28.792Z,7.70
2017-10-13T04:35:56.297Z,6.40
2017-10-13T04:38:23.772Z,6.17
2017-10-13T04:40:51.221Z,6.50
2017-10-13T04:43:18.710Z,6.20
2017-10-13T04:45:46.166Z,7.07
2017-10-13T04:48:13.655Z,6.73
2017-10-13T04:50:41.141Z,8.23
2017-10-13T04:53:08.601Z,6.83
2017-10-13T04:55:36.165Z,6.33
2017-10-13T04:58:03.621Z,6.10
2017-10-13T05:00:31.172Z,6.80
2017-10-13T05:02:58.628Z,6.60
2017-10-13T05:05:26.095Z,7.63
2017-10-13T05:07:53.568Z,7.30
2017-10-13T05:10:21.041Z,7.27
2017-10-13T05:12:48.497Z,8.47
2017-10-13T05:15:16.021Z,7.23
2017-10-13T05:17:43.605Z,8.70
2017-10-13T05:20:11.047Z,7.73
2017-10-13T05:22:38.576Z,7.30
2017-10-13T05:25:06.024Z,8.27
2017-10-13T05:27:33.592Z,9.00
2017-10-13T05:30:01.040Z,8.10
2017-10-13T05:32:28.516Z,8.07
2017-10-13T05:34:55.962Z,7.63
2017-10-13T05:37:23.434Z,6.90
2017-10-13T05:39:50.891Z,8.10
2017-10-13T05:42:18.452Z,9.43
2017-10-13T05:44:45.899Z,8.07
2017-10-13T05:47:13.368Z,8.93
2017-10-13T05:49:40.832Z,7.70
2017-10-13T05:52:08.341Z,9.53
2017-10-13T05:54:35.799Z,8.63
2017-10-13T05:57:03.281Z,9.40
2017-10-13T05:59:30.752Z,9.27
2017-10-13T06:01:58.290Z,10.53
2017-10-13T06:04:25.848Z,9.87
2017-10-13T06:06:53.315Z,8.80
2017-10-13T06:09:20.776Z,9.93
2017-10-13T06:11:48.324Z,9.13
2017-10-13T06:14:15.886Z,11.10
2017-10-13T06:16:43.444Z,10.13
2017-10-13T06:19:10.998Z,11.67
2017-10-13T06:21:38.557Z,10.57
2017-10-13T06:24:06.039Z,9.87
2017-10-13T06:26:33.505Z,10.50
2017-10-13T06:29:00.989Z,10.80
2017-10-13T06:31:28.456Z,11.40
2017-10-13T06:33:56.073Z,11.87
2017-10-13T06:36:23.546Z,12.43
2017-10-13T06:38:51.037Z,12.13
2017-10-13T06:41:18.501Z,12.23
2017-10-13T06:43:45.975Z,11.63
2017-10-13T06:46:13.427Z,12.20
2017-10-13T06:48:40.923Z,12.67
2017-10-13T06:51:08.380Z,12.40
2017-10-13T06:53:35.860Z,13.53
2017-10-13T06:56:03.361Z,12.13
2017-10-13T06:58:30.844Z,10.60
2017-10-13T07:00:58.313Z,12.70
2017-10-13T07:03:25.795Z,12.70
2017-10-13T07:05:53.248Z,13.87
2017-10-13T07:08:20.745Z,13.37
2017-10-13T07:10:48.309Z,14.17
2017-10-13T07:13:15.803Z,13.00
2017-10-13T07:15:43.288Z,12.50
2017-10-13T07:18:10.774Z,14.73
2017-10-13T07:20:38.236Z,13.77
2017-10-13T07:23:05.798Z,13.23
2017-10-13T07:25:33.272Z,12.70
2017-10-13T07:28:00.769Z,13.73
2017-10-13T07:30:28.263Z,11.37
2017-10-13T07:32:55.745Z,12.07
2017-10-13T07:35:23.206Z,13.30
2017-10-13T07:37:50.706Z,12.30
2017-10-13T07:40:18.181Z,11.00
2017-10-13T07:42:45.648Z,11.50
2017-10-13T07:45:13.211Z,12.00
2017-10-13T07:47:40.686Z,9.10
2017-10-13T07:50:08.167Z,11.37
2017-10-13T07:52:35.622Z,8.70
2017-10-13T07:55:03.093Z,9.70
2017-10-13T07:57:30.584Z,9.90
2017-10-13T07:59:58.153Z,9.30
2017-10-13T08:02:25.709Z,11.30
2017-10-13T08:04:53.259Z,9.83
2017-10-13T08:07:20.825Z,9.50
2017-10-13T08:09:48.321Z,10.47
2017-10-13T08:12:15.788Z,11.10
2017-10-13T08:14:43.268Z,10.17
2017-10-13T08:17:10.745Z,11.00
2017-10-13T08:19:38.229Z,10.33
2017-10-13T08:22:05.692Z,10.83
2017-10-13T08:24:33.173Z,10.90
2017-10-13T08:27:00.628Z,8.93
2017-10-13T08:29:28.112Z,10.67
2017-10-13T08:31:55.621Z,9.17
2017-10-13T08:34:23.161Z,9.27
2017-10-13T08:36:50.623Z,9.40
2017-10-13T08:39:18.109Z,9.43
2017-10-13T08:41:45.653Z,10.00
2017-10-13T08:44:13.180Z,8.67
2017-10-13T08:46:40.744Z,8.73
2017-10-13T08:49:08.299Z,9.93
2017-10-13T08:51:35.811Z,10.27
2017-10-13T08:54:03.282Z,8.97
2017-10-13T08:56:30.796Z,9.70
2017-10-13T08:58:58.332Z,10.57
2017-10-13T09:01:25.828Z,11.67
2017-10-13T09:03:53.353Z,9.03
2017-10-13T09:06:20.844Z,10.83
2017-10-13T09:08:48.300Z,9.87
2017-10-13T09:11:15.775Z,10.90
2017-10-13T09:13:43.237Z,10.17
2017-10-13T09:16:10.729Z,11.27
2017-10-13T09:18:38.225Z,10.73
2017-10-13T09:21:05.703Z,10.13
2017-10-13T09:23:33.178Z,10.70
2017-10-13T09:26:00.658Z,10.40
2017-10-13T09:28:28.148Z,11.37
2017-10-13T09:30:55.645Z,10.80
2017-10-13T09:33:23.108Z,10.70
2017-10-13T09:35:50.598Z,11.83
2017-10-13T09:38:18.095Z,12.37
2017-10-13T09:40:45.579Z,11.57
2017-10-13T09:43:13.039Z,11.63
2017-10-13T09:45:40.516Z,12.20
2017-10-13T09:48:07.988Z,11.87
2017-10-13T09:50:35.475Z,12.10
2017-10-13T09:53:02.937Z,13.43
2017-10-13T09:55:30.424Z,11.83
2017-10-13T09:57:57.887Z,12.73
2017-10-13T10:00:25.406Z,12.93
2017-10-13T10:02:52.863Z,12.50
2017-10-13T10:05:20.320Z,12.27
2017-10-13T10:07:47.800Z,12.97
2017-10-13T10:10:15.269Z,12.47
2017-10-13T10:12:42.792Z,11.47
2017-10-13T10:15:10.260Z,10.63
2017-10-13T10:17:37.755Z,10.30
2017-10-13T10:20:05.252Z,10.90
2017-10-13T10:22:32.773Z,9.77
2017-10-13T10:25:00.259Z,11.30
2017-10-13T10:27:27.788Z,11.10
2017-10-13T10:29:55.349Z,10.40
2017-10-13T10:32:22.904Z,10.03
2017-10-13T10:34:50.361Z,9.30
2017-10-13T10:37:17.856Z,11.00
2017-10-13T10:39:45.381Z,10.83
2017-10-13T10:42:12.890Z,10.63
2017-10-13T10:44:40.347Z,8.13
2017-10-13T10:47:07.810Z,8.40
2017-10-13T10:49:35.305Z,9.17
2017-10-13T10:52:02.785Z,8.13
2017-10-13T10:54:30.300Z,8.60
2017-10-13T10:56:57.756Z,7.83
2017-10-13T10:59:25.231Z,8.50
2017-10-13T11:01:52.718Z,9.23
2017-10-13T11:04:20.196Z,9.50
2017-10-13T11:06:47.702Z,9.13
2017-10-13T11:09:15.262Z,8.17
2017-10-13T11:11:42.708Z,7.40
2017-10-13T11:14:10.175Z,7.90
2017-10-13T11:16:37.741Z,8.37
2017-10-13T11:19:05.212Z,7.60
2017-10-13T11:21:32.750Z,7.67
2017-10-13T11:24:00.238Z,5.40
2017-10-13T11:26:27.772Z,4.77
2017-10-13T11:28:55.328Z,5.10
2017-10-13T11:31:22.903Z,4.73
2017-10-13T11:33:50.443Z,6.27
2017-10-13T11:36:17.904Z,6.27
2017-10-13T11:38:45.388Z,6.50
2017-10-13T11:41:12.848Z,7.10
2017-10-13T11:43:40.321Z,6.90
2017-10-13T11:46:07.780Z,8.57
2017-10-13T11:48:35.287Z,6.70
2017-10-13T11:51:02.749Z,7.70
2017-10-13T11:53:30.238Z,7.37
2017-10-13T11:55:57.689Z,7.90
2017-10-13T11:58:25.173Z,7.00
2017-10-13T12:00:52.624Z,7.37
2017-10-13T12:03:20.099Z,7.43
2017-10-13T12:05:47.548Z,7.80
2017-10-13T12:08:15.040Z,7.23
2017-10-13T12:10:42.504Z,7.03
2017-10-13T12:13:09.960Z,6.80
2017-10-13T12:15:37.503Z,8.40
2017-10-13T12:18:04.956Z,7.10
2017-10-13T12:20:32.427Z,7.60
2017-10-13T12:22:59.879Z,7.40
2017-10-13T12:25:27.348Z,8.00
2017-10-13T12:27:54.893Z,7.10
2017-10-13T12:30:22.379Z,6.97
2017-10-13T12:32:49.847Z,6.50
2017-10-13T12:35:17.338Z,6.90
2017-10-13T12:37:44.794Z,5.00
2017-10-13T12:40:12.277Z,5.20
2017-10-13T12:42:39.736Z,6.70
2017-10-13T12:45:07.213Z,6.90
2017-10-13T12:47:34.671Z,6.27
2017-10-13T12:50:02.213Z,6.70
2017-10-13T12:52:29.818Z,7.13
2017-10-13T12:54:57.297Z,7.10
2017-10-13T12:57:24.747Z,6.53
2017-10-13T12:59:52.205Z,9.00
2017-10-13T13:02:19.680Z,8.13
2017-10-13T13:04:47.144Z,8.40
2017-10-13T13:07:14.709Z,8.73
2017-10-13T13:09:42.267Z,6.70
2017-10-13T13:12:09.828Z,7.73
2017-10-13T13:14:37.312Z,7.40
2017-10-13T13:17:04.801Z,7.50
2017-10-13T13:19:32.313Z,7.20
2017-10-13T13:21:59.793Z,7.93
2017-10-13T13:24:27.248Z,7.90
2017-10-13T13:26:54.726Z,6.57
2017-10-13T13:29:22.204Z,6.90
2017-10-13T13:31:49.685Z,7.67
2017-10-13T13:34:17.139Z,6.90
2017-10-13T13:36:44.619Z,6.33
2017-10-13T13:39:12.094Z,7.70
2017-10-13T13:41:39.568Z,7.20
2017-10-13T13:44:07.020Z,6.67
2017-10-13T13:46:34.484Z,6.83
2017-10-13T13:49:01.957Z,6.40
2017-10-13T13:51:29.429Z,7.00
2017-10-13T13:53:56.893Z,6.40
2017-10-13T13:56:24.420Z,6.43
2017-10-13T13:58:51.872Z,5.87
2017-10-13T14:01:19.376Z,6.00
2017-10-13T14:03:46.832Z,6.33
2017-10-13T14:06:14.331Z,6.60
2017-10-13T14:08:41.794Z,6.07
2017-10-13T14:11:09.296Z,7.30
2017-10-13T14:13:36.741Z,6.30
2017-10-13T14:16:04.240Z,8.83
2017-10-13T14:18:31.696Z,5.73
2017-10-13T14:20:59.172Z,18.20
2017-10-13T14:23:26.679Z,16.10
2017-10-13T14:25:54.162Z,9.03
2017-10-13T14:28:21.632Z,7.43
2017-10-13T14:30:49.112Z,5.67
2017-10-13T14:33:16.589Z,6.77
2017-10-13T14:35:44.087Z,7.10
2017-10-13T14:38:11.550Z,7.27
2017-10-13T14:40:39.028Z,6.47
2017-10-13T14:43:06.505Z,6.70
2017-10-13T14:45:33.994Z,7.83
2017-10-13T14:48:01.476Z,7.73
2017-10-13T14:50:28.935Z,6.83
2017-10-13T14:52:56.417Z,7.00
2017-10-13T14:55:23.895Z,14.40
2017-10-13T14:57:51.384Z,10.57
2017-10-13T15:00:18.934Z,6.87
2017-10-13T15:02:46.409Z,7.73
2017-10-13T15:05:13.935Z,7.50
2017-10-13T15:07:41.528Z,7.70
2017-10-13T15:10:08.986Z,7.13
2017-10-13T15:12:36.480Z,6.77
2017-10-13T15:15:03.973Z,7.57
2017-10-13T15:17:31.448Z,7.00
2017-10-13T15:19:58.916Z,10.60
2017-10-13T15:22:26.397Z,11.13
2017-10-13T15:24:59.595Z,9.27
2017-10-13T15:41:06.954Z,7.60
2017-10-13T15:43:40.141Z,7.40
2017-10-13T15:46:13.155Z,6.50
2017-10-13T15:48:40.642Z,6.93
2017-10-13T15:54:13.046Z,6.73
2017-10-13T15:56:40.659Z,7.87
2017-10-13T15:59:08.178Z,7.13
2017-10-13T16:01:35.628Z,7.40
2017-10-13T16:04:03.177Z,7.67
2017-10-13T16:06:30.636Z,7.90
2017-10-13T16:08:58.192Z,7.80
2017-10-13T16:11:25.754Z,8.20
2017-10-13T16:13:53.225Z,8.13
2017-10-13T16:16:20.689Z,7.83
2017-10-13T16:18:48.186Z,7.33
2017-10-13T16:21:15.686Z,6.80
2017-10-13T16:23:43.240Z,7.50
2017-10-13T16:26:10.748Z,6.93
2017-10-13T16:28:38.257Z,7.37
2017-10-13T16:31:05.721Z,7.77
2017-10-13T16:33:33.204Z,7.80
2017-10-13T16:36:00.724Z,7.10
2017-10-13T16:38:28.202Z,7.97
2017-10-13T16:40:55.680Z,7.93
2017-10-13T16:43:23.127Z,7.67
2017-10-13T16:45:50.604Z,8.63
2017-10-13T16:48:18.068Z,7.67
2017-10-13T16:50:45.542Z,8.00
2017-10-13T16:53:13.076Z,7.83
2017-10-13T16:55:40.623Z,8.63
2017-10-13T16:58:08.073Z,7.43
2017-10-13T17:00:35.545Z,7.40
2017-10-13T17:03:03.146Z,7.47
2017-10-13T17:05:30.722Z,7.97
2017-10-13T17:07:58.181Z,7.70
2017-10-13T17:10:25.650Z,8.70
2017-10-13T17:12:53.119Z,7.60
2017-10-13T17:15:20.650Z,7.20
2017-10-13T17:17:48.114Z,7.00
2017-10-13T17:20:15.689Z,6.50
2017-10-13T17:22:43.148Z,7.87
2017-10-13T17:25:10.627Z,6.30
2017-10-13T17:27:38.112Z,7.33
2017-10-13T17:30:05.586Z,7.80
2017-10-13T17:32:33.065Z,6.00
2017-10-13T17:35:00.551Z,6.30
2017-10-13T17:37:28.008Z,6.23
2017-10-13T17:39:55.510Z,6.60
2017-10-13T17:42:22.965Z,5.93
2017-10-13T17:44:50.452Z,7.37
2017-10-13T17:47:17.916Z,6.07
2017-10-13T17:49:45.470Z,6.70
2017-10-13T17:52:12.916Z,6.23
2017-10-13T17:54:40.391Z,6.87
2017-10-13T17:57:07.846Z,6.83
2017-10-13T17:59:35.328Z,6.90
2017-10-13T18:02:02.791Z,6.27
2017-10-13T18:04:30.264Z,5.90
2017-10-13T18:06:57.719Z,6.80
2017-10-13T18:09:25.237Z,7.43
2017-10-13T18:11:52.698Z,8.00
2017-10-13T18:14:20.218Z,7.50
2017-10-13T18:16:47.778Z,5.93
2017-10-13T18:19:15.228Z,7.60
2017-10-13T18:21:42.699Z,6.60
2017-10-13T18:24:10.242Z,7.30
2017-10-13T18:26:37.733Z,8.23
2017-10-13T18:29:05.274Z,6.03
2017-10-13T18:31:32.748Z,7.07
2017-10-13T18:34:00.277Z,12.60
2017-10-13T18:36:27.752Z,9.97
2017-10-13T18:38:55.213Z,7.40
2017-10-13T18:41:22.753Z,6.33
2017-10-13T18:43:50.313Z,6.80
2017-10-13T18:46:17.790Z,8.33
2017-10-13T18:48:45.259Z,7.00
2017-10-13T18:51:12.751Z,8.03
2017-10-13T18:53:40.248Z,6.87
2017-10-13T18:56:07.725Z,7.27
2017-10-13T18:58:35.176Z,6.90
2017-10-13T19:01:02.705Z,6.80
2017-10-13T19:03:30.262Z,7.70
2017-10-13T19:05:57.727Z,6.63
2017-10-13T19:08:25.194Z,6.13
2017-10-13T19:10:52.659Z,6.93
2017-10-13T19:13:20.129Z,7.20
2017-10-13T19:15:47.604Z,6.80
2017-10-13T19:18:15.052Z,6.40
2017-10-13T19:20:42.524Z,6.57
2017-10-13T19:23:09.976Z,6.23
2017-10-13T19:25:37.453Z,7.53
2017-10-13T19:28:04.904Z,8.07
2017-10-13T19:30:32.383Z,7.20
2017-10-13T19:32:59.837Z,6.67
2017-10-13T19:35:27.308Z,8.20
2017-10-13T19:37:54.868Z,6.30
2017-10-13T19:40:22.424Z,7.43
2017-10-13T19:42:49.976Z,6.77
2017-10-13T19:45:17.448Z,7.00
2017-10-13T19:47:44.899Z,7.10
2017-10-13T19:50:12.384Z,7.20
2017-10-13T19:52:39.841Z,6.53
2017-10-13T19:55:07.320Z,7.80
2017-10-13T19:57:34.799Z,6.93
2017-10-13T20:00:02.258Z,6.80
2017-10-13T20:02:29.750Z,6.10
2017-10-13T20:04:57.214Z,5.90
2017-10-13T20:07:24.693Z,6.07
2017-10-13T20:09:52.157Z,5.97
2017-10-13T20:12:19.637Z,7.60
2017-10-13T20:14:47.102Z,11.57
2017-10-13T20:17:14.600Z,15.77
2017-10-13T20:19:42.063Z,7.20
2017-10-13T20:22:09.545Z,7.57
2017-10-13T20:24:37.014Z,7.83
2017-10-13T20:27:04.498Z,6.03
2017-10-13T20:29:31.961Z,5.47
2017-10-13T20:31:59.452Z,6.90
2017-10-13T20:34:27.100Z,6.00
2017-10-13T20:36:54.589Z,6.50
2017-10-13T20:39:22.088Z,6.60
2017-10-13T20:41:49.597Z,6.73
2017-10-13T20:44:17.050Z,6.13
2017-10-13T20:46:44.534Z,6.30
2017-10-13T20:49:11.989Z,6.97
2017-10-13T20:51:39.463Z,5.93
2017-10-13T20:54:06.911Z,6.60
2017-10-13T20:56:34.398Z,7.40
2017-10-13T20:59:01.952Z,6.40
2017-10-13T21:01:29.458Z,6.40
2017-10-13T21:03:56.919Z,6.73
2017-10-13T21:06:24.400Z,6.30
2017-10-13T21:08:51.874Z,6.67
2017-10-13T21:11:19.345Z,7.00
2017-10-13T21:13:46.891Z,7.80
2017-10-13T21:16:14.368Z,7.50
2017-10-13T21:18:41.836Z,7.77
2017-10-13T21:21:09.309Z,6.97
2017-10-13T21:23:36.785Z,7.80
2017-10-13T21:26:04.246Z,7.30
2017-10-13T21:28:31.720Z,6.90
2017-10-13T21:30:59.173Z,6.40
2017-10-13T21:33:26.648Z,6.80
2017-10-13T21:35:54.100Z,7.30
2017-10-13T21:38:21.576Z,6.30
2017-10-13T21:40:49.023Z,7.40
2017-10-13T21:43:16.497Z,6.20
2017-10-13T21:45:43.953Z,7.40
2017-10-13T21:48:11.439Z,7.90
2017-10-13T21:50:38.897Z,8.50
2017-10-13T21:53:06.410Z,7.30
2017-10-13T21:55:33.955Z,7.27
2017-10-13T21:58:01.444Z,8.57
2017-10-13T22:00:28.911Z,8.70
2017-10-13T22:02:56.442Z,8.43
2017-10-13T22:05:23.997Z,9.17
2017-10-13T22:07:51.557Z,9.63
2017-10-13T22:10:19.023Z,9.53
2017-10-13T22:12:46.540Z,11.33
2017-10-13T22:15:14.004Z,9.33
2017-10-13T22:17:41.484Z,11.40
2017-10-13T22:20:08.950Z,10.40
2017-10-13T22:22:36.446Z,11.67
2017-10-13T22:25:03.904Z,14.60
2017-10-13T22:27:31.405Z,11.57
2017-10-13T22:29:58.995Z,10.80
2017-10-13T22:32:26.481Z,10.57
2017-10-13T22:34:53.956Z,10.50
2017-10-13T22:37:21.447Z,10.80
2017-10-13T22:39:48.905Z,10.23
2017-10-13T22:42:16.460Z,10.07
2017-10-13T22:44:43.954Z,10.30
2017-10-13T22:47:11.425Z,10.43
2017-10-13T22:49:38.908Z,10.03
2017-10-13T22:52:06.369Z,9.93
2017-10-13T22:54:33.847Z,10.07
2017-10-13T22:57:01.319Z,10.40
2017-10-13T22:59:28.832Z,10.00
2017-10-13T23:01:56.312Z,10.13
2017-10-13T23:04:23.788Z,9.70
2017-10-13T23:06:51.326Z,10.00
2017-10-13T23:09:18.841Z,8.80
2017-10-13T23:11:46.300Z,9.83
2017-10-13T23:14:13.805Z,11.23
2017-10-13T23:16:41.268Z,11.70
2017-10-13T23:19:08.752Z,10.40
2017-10-13T23:21:36.215Z,11.10
2017-10-13T23:24:03.699Z,11.10
2017-10-13T23:26:31.174Z,10.03
2017-10-13T23:28:58.660Z,10.93
2017-10-13T23:31:26.129Z,11.67
2017-10-13T23:33:53.622Z,10.50
2017-10-13T23:36:21.075Z,12.40
2017-10-13T23:38:48.580Z,9.60
2017-10-13T23:41:16.118Z,11.67
2017-10-13T23:43:43.596Z,9.70
2017-10-13T23:46:11.056Z,11.50
2017-10-13T23:48:38.544Z,8.77
2017-10-13T23:51:06.052Z,8.27
2017-10-13T23:53:33.532Z,8.17
2017-10-13T23:56:01.064Z,7.53
2017-10-13T23:58:28.552Z,8.00
